createdAt,value
2023-08-10T00:00:27.145Z,21.30
2023-08-10T00:02:56.545Z,21.20
2023-08-10T00:05:25.208Z,21.30
2023-08-10T00:07:53.359Z,21.20
2023-08-10T00:10:21.887Z,21.20
2023-08-10T00:12:51.149Z,21.30
2023-08-10T00:15:20.119Z,21.30
2023-08-10T00:17:48.043Z,21.30
2023-08-10T00:20:18.580Z,21.20
2023-08-10T00:22:46.649Z,21.30
2023-08-10T00:25:14.647Z,21.30
2023-08-10T00:27:42.586Z,21.30
2023-08-10T00:30:12.328Z,21.30
2023-08-10T00:32:40.428Z,21.30
2023-08-10T00:35:08.927Z,21.30
2023-08-10T00:37:37.302Z,21.20
2023-08-10T00:40:06.130Z,21.30
2023-08-10T00:42:34.454Z,21.30
2023-08-10T00:45:02.639Z,21.20
2023-08-10T00:47:32.216Z,21.30
2023-08-10T00:50:00.428Z,21.30
2023-08-10T00:52:28.424Z,21.30
2023-08-10T00:54:56.415Z,21.30
2023-08-10T00:57:24.456Z,21.30
2023-08-10T00:59:53.754Z,21.30
2023-08-10T01:02:22.045Z,21.20
2023-08-10T01:04:51.727Z,21.30
2023-08-10T01:07:24.558Z,21.20
2023-08-10T01:10:01.151Z,21.30
2023-08-10T01:12:35.469Z,21.30
2023-08-10T01:15:09.383Z,21.30
2023-08-10T01:17:41.698Z,21.30
2023-08-10T01:20:13.188Z,21.20
2023-08-10T01:22:51.078Z,21.20
2023-08-10T01:25:22.139Z,21.30
2023-08-10T01:27:50.765Z,21.20
2023-08-10T01:30:19.589Z,21.20
2023-08-10T01:32:48.061Z,21.20
2023-08-10T01:35:16.196Z,21.20
2023-08-10T01:37:44.105Z,21.20
2023-08-10T01:40:14.189Z,21.30
2023-08-10T01:42:44.872Z,21.20
2023-08-10T01:45:13.936Z,21.20
2023-08-10T01:47:49.737Z,21.20
2023-08-10T01:50:20.303Z,21.20
2023-08-10T01:52:52.187Z,21.20
2023-08-10T01:55:21.825Z,21.20
2023-08-10T01:57:51.962Z,21.20
2023-08-10T02:00:20.289Z,21.20
2023-08-10T02:02:48.267Z,21.20
2023-08-10T02:05:16.400Z,21.20
2023-08-10T02:07:49.832Z,21.20
2023-08-10T02:10:18.743Z,21.20
2023-08-10T02:12:46.642Z,21.20
2023-08-10T02:15:16.771Z,21.20
2023-08-10T02:17:45.964Z,21.20
2023-08-10T02:20:14.751Z,21.20
2023-08-10T02:22:44.545Z,21.20
2023-08-10T02:25:12.774Z,21.20
2023-08-10T02:27:41.267Z,21.20
2023-08-10T02:30:10.696Z,21.20
2023-08-10T02:32:40.323Z,21.20
2023-08-10T02:35:10.277Z,21.20
2023-08-10T02:37:39.207Z,21.20
2023-08-10T02:40:08.927Z,21.20
2023-08-10T02:42:36.826Z,21.20
2023-08-10T02:45:05.418Z,21.20
2023-08-10T02:47:35.062Z,21.20
2023-08-10T02:50:06.627Z,21.20
2023-08-10T02:52:34.711Z,21.20
2023-08-10T02:55:02.869Z,21.20
2023-08-10T02:57:31.053Z,21.20
2023-08-10T02:59:59.164Z,21.20
2023-08-10T03:02:29.529Z,21.20
2023-08-10T03:04:57.526Z,21.20
2023-08-10T03:07:27.791Z,21.20
2023-08-10T03:09:56.176Z,21.20
2023-08-10T03:12:24.178Z,21.20
2023-08-10T03:14:52.130Z,21.20
2023-08-10T03:17:20.049Z,21.20
2023-08-10T03:19:47.962Z,21.20
2023-08-10T03:22:15.855Z,21.20
2023-08-10T03:24:45.106Z,21.20
2023-08-10T03:27:13.016Z,21.20
2023-08-10T03:29:40.923Z,21.20
2023-08-10T03:32:08.858Z,21.20
2023-08-10T03:34:36.826Z,21.20
2023-08-10T03:37:05.194Z,21.20
2023-08-10T03:39:33.128Z,21.20
2023-08-10T03:42:02.669Z,21.20
2023-08-10T03:44:30.809Z,21.20
2023-08-10T03:46:58.713Z,21.20
2023-08-10T03:49:26.662Z,21.20
2023-08-10T03:51:54.648Z,21.20
2023-08-10T03:54:22.835Z,21.20
2023-08-10T03:56:50.740Z,21.20
2023-08-10T03:59:20.001Z,21.20
2023-08-10T04:01:47.908Z,21.20
2023-08-10T04:04:15.829Z,21.20
2023-08-10T04:06:43.751Z,21.20
2023-08-10T04:09:12.021Z,21.20
2023-08-10T04:11:40.141Z,21.20
2023-08-10T04:14:08.036Z,21.20
2023-08-10T04:16:37.493Z,21.20
2023-08-10T04:19:05.840Z,21.20
2023-08-10T04:21:33.795Z,21.20
2023-08-10T04:24:01.708Z,21.20
2023-08-10T04:26:29.636Z,21.20
2023-08-10T04:28:58.105Z,21.20
2023-08-10T04:31:26.069Z,21.20
2023-08-10T04:33:55.715Z,21.20
2023-08-10T04:36:23.615Z,21.20
2023-08-10T04:38:53.146Z,21.20
2023-08-10T04:41:21.119Z,21.20
2023-08-10T04:43:49.064Z,21.20
2023-08-10T04:46:17.062Z,21.20
2023-08-10T04:48:45.170Z,21.20
2023-08-10T04:51:14.431Z,21.20
2023-08-10T04:53:42.734Z,21.20
2023-08-10T04:56:10.711Z,21.20
2023-08-10T04:58:38.655Z,21.20
2023-08-10T05:01:06.648Z,21.20
2023-08-10T05:03:34.730Z,21.20
2023-08-10T05:06:03.341Z,21.20
2023-08-10T05:08:32.857Z,21.20
2023-08-10T05:11:00.855Z,21.20
2023-08-10T05:13:28.799Z,21.20
2023-08-10T05:15:56.754Z,21.20
2023-08-10T05:18:25.242Z,21.20
2023-08-10T05:20:53.178Z,21.10
2023-08-10T05:23:21.076Z,21.10
2023-08-10T05:25:50.326Z,21.20
2023-08-10T05:28:18.377Z,21.20
2023-08-10T05:30:46.366Z,21.10
2023-08-10T05:33:14.292Z,21.10
2023-08-10T05:35:42.223Z,21.10
2023-08-10T05:38:10.273Z,21.10
2023-08-10T05:40:38.506Z,21.10
2023-08-10T05:43:07.777Z,21.10
2023-08-10T05:45:35.735Z,21.10
2023-08-10T05:48:10.792Z,21.10
2023-08-10T05:50:39.123Z,21.10
2023-08-10T05:53:07.750Z,21.10
2023-08-10T05:55:35.839Z,21.10
2023-08-10T05:58:03.910Z,21.10
2023-08-10T06:00:33.506Z,21.10
2023-08-10T06:03:01.464Z,21.10
2023-08-10T06:05:32.420Z,21.10
2023-08-10T06:08:00.506Z,21.10
2023-08-10T06:10:28.705Z,21.10
2023-08-10T06:12:56.668Z,21.10
2023-08-10T06:15:25.265Z,21.10
2023-08-10T06:17:54.576Z,21.10
2023-08-10T06:20:23.659Z,21.10
2023-08-10T06:22:51.594Z,21.10
2023-08-10T06:25:19.898Z,21.10
2023-08-10T06:27:49.775Z,21.10
2023-08-10T06:30:18.969Z,21.10
2023-08-10T06:32:46.925Z,21.10
2023-08-10T06:35:16.198Z,21.10
2023-08-10T06:37:44.664Z,21.10
2023-08-10T06:40:15.933Z,21.10
2023-08-10T06:42:44.687Z,21.10
2023-08-10T06:45:12.901Z,21.10
2023-08-10T06:47:41.818Z,21.10
2023-08-10T06:50:10.249Z,21.10
2023-08-10T06:52:39.512Z,21.10
2023-08-10T06:55:08.495Z,21.10
2023-08-10T06:57:37.297Z,21.10
2023-08-10T07:02:38.983Z,21.10
2023-08-10T07:05:08.206Z,21.10
2023-08-10T07:07:36.125Z,21.10
2023-08-10T07:10:07.186Z,21.10
2023-08-10T07:12:35.110Z,21.10
2023-08-10T07:15:03.220Z,21.10
2023-08-10T07:17:31.761Z,21.10
2023-08-10T07:19:59.982Z,21.10
2023-08-10T07:22:28.117Z,21.10
2023-08-10T07:24:56.480Z,21.10
2023-08-10T07:29:53.691Z,21.10
2023-08-10T07:32:22.373Z,21.10
2023-08-10T07:34:50.810Z,21.10
2023-08-10T07:37:18.923Z,21.00
2023-08-10T07:39:46.842Z,21.00
2023-08-10T07:42:14.743Z,21.10
2023-08-10T07:44:44.916Z,21.00
2023-08-10T07:47:13.597Z,21.00
2023-08-10T07:49:45.064Z,21.00
2023-08-10T07:52:14.671Z,21.00
2023-08-10T07:54:42.628Z,21.00
2023-08-10T07:57:10.538Z,21.00
2023-08-10T07:59:38.465Z,21.00
2023-08-10T08:02:08.173Z,21.00
2023-08-10T08:04:36.430Z,21.00
2023-08-10T08:07:04.489Z,21.00
2023-08-10T08:09:32.449Z,21.00
2023-08-10T08:12:00.391Z,21.00
2023-08-10T08:14:28.295Z,21.00
2023-08-10T08:16:56.238Z,21.00
2023-08-10T08:19:25.489Z,21.00
2023-08-10T08:21:53.378Z,21.00
2023-08-10T08:24:21.316Z,21.00
2023-08-10T08:26:49.297Z,21.00
2023-08-10T08:29:17.193Z,21.00
2023-08-10T08:31:45.218Z,21.00
2023-08-10T08:34:13.142Z,21.00
2023-08-10T08:36:42.420Z,21.00
2023-08-10T08:39:11.437Z,21.00
2023-08-10T08:41:40.586Z,21.00
2023-08-10T08:44:10.025Z,21.00
2023-08-10T08:46:41.828Z,21.00
2023-08-10T08:49:09.723Z,21.00
2023-08-10T08:51:39.058Z,21.00
2023-08-10T08:54:08.410Z,21.00
2023-08-10T08:56:36.362Z,21.00
2023-08-10T08:59:04.345Z,21.00
2023-08-10T09:01:32.520Z,21.00
2023-08-10T09:04:01.482Z,21.00
2023-08-10T09:06:29.502Z,21.00
2023-08-10T09:08:57.389Z,21.00
2023-08-10T09:11:26.688Z,21.00
2023-08-10T09:14:08.540Z,21.00
2023-08-10T09:16:38.570Z,21.00
2023-08-10T09:19:06.502Z,21.00
2023-08-10T09:21:35.000Z,21.00
2023-08-10T09:24:02.961Z,21.00
2023-08-10T09:26:32.392Z,21.00
2023-08-10T09:29:00.344Z,21.00
2023-08-10T09:31:30.020Z,21.00
2023-08-10T09:33:59.128Z,21.00
2023-08-10T09:36:28.453Z,21.00
2023-08-10T09:39:01.451Z,21.00
2023-08-10T09:41:31.857Z,21.00
2023-08-10T09:43:59.884Z,21.00
2023-08-10T09:46:29.686Z,21.00
2023-08-10T09:48:57.963Z,21.00
2023-08-10T09:51:25.890Z,21.00
2023-08-10T09:53:54.519Z,21.00
2023-08-10T09:56:22.978Z,21.00
2023-08-10T09:58:52.550Z,21.00
2023-08-10T10:01:20.908Z,21.00
2023-08-10T10:03:48.977Z,21.00
2023-08-10T10:06:17.729Z,21.00
2023-08-10T10:08:53.228Z,21.00
2023-08-10T10:11:23.611Z,21.00
2023-08-10T10:13:53.944Z,21.00
2023-08-10T10:16:22.476Z,21.00
2023-08-10T10:18:50.737Z,21.00
2023-08-10T10:21:19.293Z,21.00
2023-08-10T10:23:50.667Z,21.00
2023-08-10T10:26:22.013Z,21.00
2023-08-10T10:29:13.178Z,21.00
2023-08-10T10:31:41.820Z,21.00
2023-08-10T10:34:13.551Z,21.00
2023-08-10T10:36:41.735Z,21.00
2023-08-10T10:39:12.867Z,21.00
2023-08-10T10:41:43.676Z,20.90
2023-08-10T10:44:13.071Z,21.00
2023-08-10T10:46:43.018Z,21.00
2023-08-10T10:49:14.838Z,21.00
2023-08-10T10:51:53.155Z,21.00
2023-08-10T10:54:21.247Z,20.90
2023-08-10T10:56:49.332Z,21.00
2023-08-10T10:59:20.130Z,20.90
2023-08-10T11:01:49.599Z,21.00
2023-08-10T11:04:17.702Z,21.00
2023-08-10T11:06:45.766Z,21.00
2023-08-10T11:09:14.413Z,21.00
2023-08-10T11:11:47.444Z,21.00
2023-08-10T11:14:15.493Z,20.90
2023-08-10T11:16:45.892Z,21.00
2023-08-10T11:19:15.093Z,21.00
2023-08-10T11:21:46.852Z,21.00
2023-08-10T11:24:15.010Z,20.90
2023-08-10T11:26:43.584Z,20.90
2023-08-10T11:29:12.149Z,20.90
2023-08-10T11:34:23.717Z,20.90
2023-08-10T11:36:52.815Z,20.90
2023-08-10T11:39:21.469Z,21.00
2023-08-10T11:41:51.058Z,21.00
2023-08-10T11:44:30.201Z,20.90
2023-08-10T11:46:59.936Z,21.00
2023-08-10T11:49:34.239Z,20.90
2023-08-10T11:52:04.922Z,20.90
2023-08-10T11:54:35.940Z,20.90
2023-08-10T11:57:11.603Z,20.90
2023-08-10T11:59:39.971Z,21.00
2023-08-10T12:02:12.846Z,21.00
2023-08-10T12:04:42.596Z,21.00
2023-08-10T12:07:10.698Z,21.00
2023-08-10T12:09:46.389Z,21.00
2023-08-10T12:12:14.616Z,21.00
2023-08-10T12:14:42.635Z,21.00
2023-08-10T12:17:11.281Z,21.00
2023-08-10T12:19:39.313Z,21.00
2023-08-10T12:22:09.766Z,21.00
2023-08-10T12:24:37.679Z,21.00
2023-08-10T12:27:07.246Z,21.00
2023-08-10T12:29:35.592Z,21.00
2023-08-10T12:32:03.630Z,21.00
2023-08-10T12:34:31.560Z,21.00
2023-08-10T12:36:59.509Z,21.00
2023-08-10T12:39:28.948Z,21.00
2023-08-10T12:41:57.217Z,21.00
2023-08-10T12:44:25.146Z,21.00
2023-08-10T12:46:53.845Z,21.00
2023-08-10T12:49:21.774Z,21.00
2023-08-10T12:51:49.723Z,21.00
2023-08-10T12:54:17.632Z,21.00
2023-08-10T12:59:19.111Z,21.00
2023-08-10T13:01:47.152Z,21.00
2023-08-10T13:04:15.519Z,21.00
2023-08-10T13:06:43.445Z,21.00
2023-08-10T13:09:11.699Z,21.00
2023-08-10T13:11:39.930Z,21.00
2023-08-10T13:14:09.211Z,21.00
2023-08-10T13:16:37.191Z,21.00
2023-08-10T13:19:05.498Z,21.00
2023-08-10T13:21:33.550Z,21.00
2023-08-10T13:24:01.565Z,21.00
2023-08-10T13:26:29.863Z,21.00
2023-08-10T13:28:58.089Z,21.00
2023-08-10T13:31:27.712Z,21.00
2023-08-10T13:33:56.915Z,21.00
2023-08-10T13:36:24.856Z,21.10
2023-08-10T13:38:52.772Z,21.10
2023-08-10T13:41:20.670Z,21.10
2023-08-10T13:43:49.722Z,21.10
2023-08-10T13:46:17.667Z,21.10
2023-08-10T13:48:46.923Z,21.10
2023-08-10T13:51:14.880Z,21.10
2023-08-10T13:53:42.893Z,21.10
2023-08-10T13:56:10.849Z,21.10
2023-08-10T13:58:38.852Z,21.10
2023-08-10T14:01:07.972Z,21.10
2023-08-10T14:03:36.291Z,21.10
2023-08-10T14:06:05.306Z,21.10
2023-08-10T14:08:33.465Z,21.10
2023-08-10T14:11:01.462Z,21.10
2023-08-10T14:13:29.762Z,21.10
2023-08-10T14:15:57.688Z,21.10
2023-08-10T14:18:25.658Z,21.10
2023-08-10T14:20:53.579Z,21.10
2023-08-10T14:23:22.940Z,21.10
2023-08-10T14:25:50.883Z,21.10
2023-08-10T14:28:18.794Z,21.10
2023-08-10T14:30:46.975Z,21.10
2023-08-10T14:33:14.965Z,21.10
2023-08-10T14:35:42.954Z,21.10
2023-08-10T14:38:10.832Z,21.20
2023-08-10T14:40:40.140Z,21.20
2023-08-10T14:43:08.103Z,21.10
2023-08-10T14:45:36.072Z,21.20
2023-08-10T14:48:04.465Z,21.20
2023-08-10T14:50:32.432Z,21.20
2023-08-10T14:53:00.358Z,21.20
2023-08-10T14:55:28.425Z,21.20
2023-08-10T14:57:58.388Z,21.20
2023-08-10T15:00:34.918Z,21.20
2023-08-10T15:03:04.230Z,21.20
2023-08-10T15:05:32.262Z,21.20
2023-08-10T15:08:00.560Z,21.20
2023-08-10T15:10:28.720Z,21.20
2023-08-10T15:12:57.971Z,21.20
2023-08-10T15:15:27.012Z,21.20
2023-08-10T15:17:55.110Z,21.20
2023-08-10T15:20:23.112Z,21.20
2023-08-10T15:22:51.025Z,21.20
2023-08-10T15:25:19.417Z,21.20
2023-08-10T15:27:47.453Z,21.20
2023-08-10T15:30:17.086Z,21.20
2023-08-10T15:32:45.137Z,21.20
2023-08-10T15:35:13.280Z,21.20
2023-08-10T15:37:42.395Z,21.20
2023-08-10T15:40:13.796Z,21.30
2023-08-10T15:42:41.760Z,21.30
2023-08-10T15:45:10.161Z,21.30
2023-08-10T15:47:39.514Z,21.30
2023-08-10T15:50:08.956Z,21.20
2023-08-10T15:52:37.073Z,21.30
2023-08-10T15:55:05.529Z,21.30
2023-08-10T15:57:33.472Z,21.30
2023-08-10T16:00:01.546Z,21.30
2023-08-10T16:02:29.472Z,21.30
2023-08-10T16:04:58.739Z,21.30
2023-08-10T16:07:26.662Z,21.30
2023-08-10T16:09:55.082Z,21.30
2023-08-10T16:12:23.028Z,21.30
2023-08-10T16:14:51.011Z,21.30
2023-08-10T16:17:18.988Z,21.30
2023-08-10T16:19:46.917Z,21.30
2023-08-10T16:22:16.388Z,21.40
2023-08-10T16:24:44.336Z,21.40
2023-08-10T16:27:12.328Z,21.40
2023-08-10T16:29:41.349Z,21.40
2023-08-10T16:32:09.709Z,21.40
2023-08-10T16:34:38.659Z,21.40
2023-08-10T16:37:06.881Z,21.40
2023-08-10T16:39:36.814Z,21.40
2023-08-10T16:42:05.155Z,21.40
2023-08-10T16:44:33.245Z,21.40
2023-08-10T16:47:01.239Z,21.40
2023-08-10T16:49:29.142Z,21.40
2023-08-10T16:51:57.072Z,21.40
2023-08-10T16:54:25.025Z,21.40
2023-08-10T16:56:54.290Z,21.40
2023-08-10T16:59:23.457Z,21.40
2023-08-10T17:01:51.796Z,21.40
2023-08-10T17:04:20.692Z,21.40
2023-08-10T17:06:48.707Z,21.40
2023-08-10T17:09:19.079Z,21.50
2023-08-10T17:11:47.082Z,21.50
2023-08-10T17:14:16.401Z,21.50
2023-08-10T17:16:44.437Z,21.50
2023-08-10T17:19:12.359Z,21.50
2023-08-10T17:21:40.278Z,21.50
2023-08-10T17:24:08.715Z,21.50
2023-08-10T17:26:36.820Z,21.50
2023-08-10T17:29:19.906Z,21.50
2023-08-10T17:31:50.449Z,21.50
2023-08-10T17:34:18.449Z,21.50
2023-08-10T17:36:46.400Z,21.50
2023-08-10T17:39:14.386Z,21.50
2023-08-10T17:41:46.330Z,21.50
2023-08-10T17:44:14.393Z,21.50
2023-08-10T17:46:42.540Z,21.50
2023-08-10T17:49:11.900Z,21.60
2023-08-10T17:51:39.866Z,21.60
2023-08-10T17:54:08.334Z,21.60
2023-08-10T17:56:36.272Z,21.60
2023-08-10T17:59:04.200Z,21.60
2023-08-10T18:01:32.126Z,21.60
2023-08-10T18:04:00.101Z,21.60
2023-08-10T18:06:30.505Z,21.60
2023-08-10T18:08:58.616Z,21.60
2023-08-10T18:11:26.595Z,21.60
2023-08-10T18:13:54.505Z,21.60
2023-08-10T18:16:25.485Z,21.60
2023-08-10T18:18:53.685Z,21.60
2023-08-10T18:21:21.648Z,21.60
2023-08-10T18:23:50.907Z,21.60
2023-08-10T18:26:18.808Z,21.60
2023-08-10T18:28:46.773Z,21.60
2023-08-10T18:31:14.732Z,21.60
2023-08-10T18:33:42.762Z,21.60
2023-08-10T18:36:10.716Z,21.60
2023-08-10T18:38:38.910Z,21.60
2023-08-10T18:41:10.646Z,21.60
2023-08-10T18:43:38.646Z,21.60
2023-08-10T18:46:06.668Z,21.60
2023-08-10T18:48:34.593Z,21.60
2023-08-10T18:51:02.526Z,21.60
2023-08-10T18:53:30.464Z,21.70
2023-08-10T18:55:58.445Z,21.60
2023-08-10T18:58:28.403Z,21.70
2023-08-10T19:00:58.240Z,21.70
2023-08-10T19:03:26.551Z,21.70
2023-08-10T19:05:54.446Z,21.70
2023-08-10T19:08:22.568Z,21.70
2023-08-10T19:10:53.994Z,21.70
2023-08-10T19:13:22.186Z,21.70
2023-08-10T19:16:00.610Z,21.70
2023-08-10T19:18:28.553Z,21.70
2023-08-10T19:20:56.550Z,21.70
2023-08-10T19:23:24.671Z,21.70
2023-08-10T19:25:52.678Z,21.70
2023-08-10T19:28:20.569Z,21.70
2023-08-10T19:30:48.509Z,21.70
2023-08-10T19:33:17.771Z,21.70
2023-08-10T19:35:45.743Z,21.70
2023-08-10T19:38:13.680Z,21.70
2023-08-10T19:40:41.598Z,21.70
2023-08-10T19:43:09.794Z,21.70
2023-08-10T19:45:37.848Z,21.70
2023-08-10T19:48:06.913Z,21.70
2023-08-10T19:50:36.940Z,21.70
2023-08-10T19:53:05.849Z,21.70
2023-08-10T19:55:33.828Z,21.80
2023-08-10T19:58:03.285Z,21.70
2023-08-10T20:00:33.983Z,21.70
2023-08-10T20:03:02.945Z,21.80
2023-08-10T20:05:30.922Z,21.80
2023-08-10T20:08:00.204Z,21.80
2023-08-10T20:10:28.687Z,21.80
2023-08-10T20:12:56.702Z,21.80
2023-08-10T20:15:24.630Z,21.80
2023-08-10T20:17:52.543Z,21.80
2023-08-10T20:20:21.079Z,21.80
2023-08-10T20:22:49.040Z,21.80
2023-08-10T20:25:19.232Z,21.80
2023-08-10T20:27:48.436Z,21.80
2023-08-10T20:30:16.563Z,21.80
2023-08-10T20:32:44.524Z,21.80
2023-08-10T20:35:12.566Z,21.80
2023-08-10T20:37:40.545Z,21.80
2023-08-10T20:40:10.073Z,21.80
2023-08-10T20:42:39.730Z,21.80
2023-08-10T20:45:08.991Z,21.80
2023-08-10T20:47:37.177Z,21.80
2023-08-10T20:50:06.898Z,21.80
2023-08-10T20:52:34.820Z,21.80
2023-08-10T20:55:02.804Z,21.80
2023-08-10T20:57:30.748Z,21.80
2023-08-10T21:00:00.071Z,21.80
2023-08-10T21:02:28.070Z,21.80
2023-08-10T21:04:56.097Z,21.80
2023-08-10T21:07:26.628Z,21.80
2023-08-10T21:09:54.576Z,21.90
2023-08-10T21:12:22.743Z,21.80
2023-08-10T21:14:50.705Z,21.80
2023-08-10T21:17:20.680Z,21.90
2023-08-10T21:19:48.648Z,21.90
2023-08-10T21:22:16.623Z,21.90
2023-08-10T21:24:44.554Z,21.90
2023-08-10T21:27:12.596Z,21.90
2023-08-10T21:29:42.389Z,21.90
2023-08-10T21:32:10.752Z,21.90
2023-08-10T21:34:40.301Z,21.90
2023-08-10T21:37:08.599Z,21.90
2023-08-10T21:39:36.706Z,21.90
2023-08-10T21:42:04.968Z,21.90
2023-08-10T21:44:34.873Z,21.90
2023-08-10T21:47:04.883Z,21.90
2023-08-10T21:49:33.065Z,21.90
2023-08-10T21:52:02.327Z,21.90
2023-08-10T21:54:30.237Z,21.90
2023-08-10T21:56:59.353Z,21.90
2023-08-10T21:59:29.245Z,21.90
2023-08-10T22:01:57.218Z,21.90
2023-08-10T22:04:25.200Z,21.90
2023-08-10T22:06:53.151Z,21.90
2023-08-10T22:09:22.494Z,21.90
2023-08-10T22:11:50.379Z,21.90
2023-08-10T22:14:18.272Z,21.90
2023-08-10T22:16:46.226Z,21.90
2023-08-10T22:19:14.171Z,21.90
2023-08-10T22:21:41.101Z,21.90
2023-08-10T22:24:08.994Z,21.90
2023-08-10T22:26:38.695Z,21.90
2023-08-10T22:29:06.608Z,21.90
2023-08-10T22:31:34.526Z,22.00
2023-08-10T22:34:02.427Z,21.90
2023-08-10T22:36:30.432Z,22.00
2023-08-10T22:38:58.306Z,21.90
2023-08-10T22:41:26.453Z,22.00
2023-08-10T22:43:55.719Z,22.00
2023-08-10T22:46:23.678Z,22.00
2023-08-10T22:48:51.606Z,22.00
2023-08-10T22:51:22.513Z,22.00
2023-08-10T22:53:50.388Z,22.00
2023-08-10T22:56:18.307Z,22.00
2023-08-10T22:58:46.213Z,22.00
2023-08-10T23:01:15.508Z,22.00
2023-08-10T23:03:44.898Z,22.00
2023-08-10T23:06:12.919Z,22.00
2023-08-10T23:08:40.808Z,22.00
2023-08-10T23:11:08.713Z,22.00
2023-08-10T23:13:36.740Z,22.00
2023-08-10T23:16:04.766Z,22.00
2023-08-10T23:18:34.030Z,22.00
2023-08-10T23:21:01.928Z,22.00
2023-08-10T23:23:30.152Z,22.00
2023-08-10T23:25:58.124Z,22.00
2023-08-10T23:28:26.227Z,22.00
2023-08-10T23:30:55.253Z,22.00
2023-08-10T23:33:24.696Z,22.00
2023-08-10T23:35:54.240Z,22.00
2023-08-10T23:38:22.117Z,22.00
2023-08-10T23:40:49.994Z,22.00
2023-08-10T23:43:18.816Z,22.00
2023-08-10T23:45:47.080Z,22.00
2023-08-10T23:48:16.018Z,22.00
2023-08-10T23:50:43.950Z,22.00
2023-08-10T23:53:13.211Z,22.00
2023-08-10T23:55:41.149Z,22.00
2023-08-10T23:58:11.366Z,22.00
